sensor_id;sensor_type;location;lat;lon;timestamp;P1;durP1;ratioP1;P2;durP2;ratioP2
21501;SDS011;27639;48.674;9.242;2023-04-15T00:01:19;12.75;;;5.85;;
21501;SDS011;27639;48.674;9.242;2023-04-15T00:03:46;12.18;;;6.72;;
21501;SDS011;27639;48.674;9.242;2023-04-15T00:06:12;10.32;;;6.78;;
21501;SDS011;27639;48.674;9.242;2023-04-15T00:08:38;10.27;;;6.40;;
21501;SDS011;27639;48.674;9.242;2023-04-15T00:11:04;12.15;;;6.47;;
21501;SDS011;27639;48.674;9.242;2023-04-15T00:13:30;10.00;;;5.95;;
21501;SDS011;27639;48.674;9.242;2023-04-15T00:15:57;11.65;;;6.47;;
21501;SDS011;27639;48.674;9.242;2023-04-15T00:18:23;10.68;;;6.00;;
21501;SDS011;27639;48.674;9.242;2023-04-15T00:20:49;10.23;;;6.38;;
21501;SDS011;27639;48.674;9.242;2023-04-15T00:23:15;11.63;;;7.28;;
21501;SDS011;27639;48.674;9.242;2023-04-15T00:25:40;12.90;;;7.47;;
21501;SDS011;27639;48.674;9.242;2023-04-15T00:28:06;13.35;;;7.28;;
21501;SDS011;27639;48.674;9.242;2023-04-15T00:30:32;12.70;;;7.45;;
21501;SDS011;27639;48.674;9.242;2023-04-15T00:32:58;13.10;;;7.15;;
21501;SDS011;27639;48.674;9.242;2023-04-15T00:35:23;11.65;;;6.38;;
21501;SDS011;27639;48.674;9.242;2023-04-15T00:37:49;10.40;;;6.45;;
21501;SDS011;27639;48.674;9.242;2023-04-15T00:40:16;9.35;;;6.18;;
21501;SDS011;27639;48.674;9.242;2023-04-15T00:42:44;9.77;;;6.47;;
21501;SDS011;27639;48.674;9.242;2023-04-15T00:45:10;12.32;;;8.10;;
21501;SDS011;27639;48.674;9.242;2023-04-15T00:47:36;14.93;;;8.77;;
21501;SDS011;27639;48.674;9.242;2023-04-15T00:50:03;16.60;;;9.57;;
21501;SDS011;27639;48.674;9.242;2023-04-15T00:52:29;17.48;;;10.95;;
21501;SDS011;27639;48.674;9.242;2023-04-15T00:54:55;15.82;;;8.68;;
21501;SDS011;27639;48.674;9.242;2023-04-15T00:57:20;14.88;;;8.82;;
21501;SDS011;27639;48.674;9.242;2023-04-15T00:59:46;15.38;;;8.63;;
21501;SDS011;27639;48.674;9.242;2023-04-15T01:02:12;14.20;;;8.27;;
21501;SDS011;27639;48.674;9.242;2023-04-15T01:04:38;12.00;;;8.40;;
21501;SDS011;27639;48.674;9.242;2023-04-15T01:07:05;18.58;;;9.80;;
21501;SDS011;27639;48.674;9.242;2023-04-15T01:09:31;15.77;;;9.20;;
21501;SDS011;27639;48.674;9.242;2023-04-15T01:11:57;19.42;;;9.35;;
21501;SDS011;27639;48.674;9.242;2023-04-15T01:14:23;12.38;;;7.65;;
21501;SDS011;27639;48.674;9.242;2023-04-15T01:16:49;11.32;;;7.68;;
21501;SDS011;27639;48.674;9.242;2023-04-15T01:19:16;11.30;;;6.50;;
21501;SDS011;27639;48.674;9.242;2023-04-15T01:21:43;11.25;;;6.18;;
21501;SDS011;27639;48.674;9.242;2023-04-15T01:24:09;10.75;;;6.80;;
21501;SDS011;27639;48.674;9.242;2023-04-15T01:26:38;9.63;;;6.05;;
21501;SDS011;27639;48.674;9.242;2023-04-15T01:29:04;9.85;;;5.70;;
21501;SDS011;27639;48.674;9.242;2023-04-15T01:31:30;15.50;;;7.47;;
21501;SDS011;27639;48.674;9.242;2023-04-15T01:33:57;11.18;;;6.38;;
21501;SDS011;27639;48.674;9.242;2023-04-15T01:36:23;11.02;;;6.35;;
21501;SDS011;27639;48.674;9.242;2023-04-15T01:38:49;12.55;;;7.55;;
21501;SDS011;27639;48.674;9.242;2023-04-15T01:41:15;13.27;;;7.57;;
21501;SDS011;27639;48.674;9.242;2023-04-15T01:43:41;14.40;;;7.00;;
21501;SDS011;27639;48.674;9.242;2023-04-15T01:46:06;11.48;;;6.78;;
21501;SDS011;27639;48.674;9.242;2023-04-15T01:48:32;11.85;;;6.90;;
21501;SDS011;27639;48.674;9.242;2023-04-15T01:50:58;8.70;;;4.43;;
21501;SDS011;27639;48.674;9.242;2023-04-15T01:53:24;8.57;;;4.60;;
21501;SDS011;27639;48.674;9.242;2023-04-15T01:55:50;8.93;;;4.28;;
21501;SDS011;27639;48.674;9.242;2023-04-15T01:58:17;7.43;;;4.20;;
21501;SDS011;27639;48.674;9.242;2023-04-15T02:00:43;7.40;;;3.58;;
21501;SDS011;27639;48.674;9.242;2023-04-15T02:03:09;8.25;;;3.90;;
21501;SDS011;27639;48.674;9.242;2023-04-15T02:05:34;7.43;;;4.10;;
21501;SDS011;27639;48.674;9.242;2023-04-15T02:08:00;7.93;;;4.47;;
21501;SDS011;27639;48.674;9.242;2023-04-15T02:10:26;10.13;;;4.60;;
21501;SDS011;27639;48.674;9.242;2023-04-15T02:12:51;12.27;;;8.13;;
21501;SDS011;27639;48.674;9.242;2023-04-15T02:15:18;15.18;;;9.55;;
21501;SDS011;27639;48.674;9.242;2023-04-15T02:17:44;14.48;;;9.60;;
21501;SDS011;27639;48.674;9.242;2023-04-15T02:20:14;13.40;;;8.10;;
21501;SDS011;27639;48.674;9.242;2023-04-15T02:22:40;15.15;;;8.75;;
21501;SDS011;27639;48.674;9.242;2023-04-15T02:25:06;14.98;;;10.55;;
21501;SDS011;27639;48.674;9.242;2023-04-15T02:27:33;20.17;;;12.38;;
21501;SDS011;27639;48.674;9.242;2023-04-15T02:29:59;20.95;;;14.30;;
21501;SDS011;27639;48.674;9.242;2023-04-15T02:32:25;26.38;;;16.30;;
21501;SDS011;27639;48.674;9.242;2023-04-15T02:34:51;21.55;;;14.18;;
21501;SDS011;27639;48.674;9.242;2023-04-15T02:37:17;17.95;;;12.30;;
21501;SDS011;27639;48.674;9.242;2023-04-15T02:39:44;22.00;;;13.35;;
21501;SDS011;27639;48.674;9.242;2023-04-15T02:42:10;26.70;;;16.90;;
21501;SDS011;27639;48.674;9.242;2023-04-15T02:44:35;27.80;;;18.77;;
21501;SDS011;27639;48.674;9.242;2023-04-15T02:47:01;29.60;;;19.88;;
21501;SDS011;27639;48.674;9.242;2023-04-15T02:49:27;39.92;;;27.67;;
21501;SDS011;27639;48.674;9.242;2023-04-15T02:51:54;27.10;;;19.02;;
21501;SDS011;27639;48.674;9.242;2023-04-15T02:54:22;22.50;;;16.08;;
21501;SDS011;27639;48.674;9.242;2023-04-15T02:56:48;26.58;;;16.75;;
21501;SDS011;27639;48.674;9.242;2023-04-15T02:59:15;22.58;;;14.57;;
21501;SDS011;27639;48.674;9.242;2023-04-15T03:01:40;20.30;;;13.90;;
21501;SDS011;27639;48.674;9.242;2023-04-15T03:04:06;21.55;;;14.98;;
21501;SDS011;27639;48.674;9.242;2023-04-15T03:06:32;20.45;;;13.98;;
21501;SDS011;27639;48.674;9.242;2023-04-15T03:08:59;20.00;;;12.68;;
21501;SDS011;27639;48.674;9.242;2023-04-15T03:11:26;20.27;;;13.15;;
21501;SDS011;27639;48.674;9.242;2023-04-15T03:13:53;16.95;;;12.60;;
21501;SDS011;27639;48.674;9.242;2023-04-15T03:16:18;18.13;;;12.32;;
21501;SDS011;27639;48.674;9.242;2023-04-15T03:18:44;18.98;;;12.27;;
21501;SDS011;27639;48.674;9.242;2023-04-15T03:21:09;21.02;;;14.07;;
21501;SDS011;27639;48.674;9.242;2023-04-15T03:23:35;31.42;;;19.08;;
21501;SDS011;27639;48.674;9.242;2023-04-15T03:26:01;31.50;;;21.05;;
21501;SDS011;27639;48.674;9.242;2023-04-15T03:28:27;26.02;;;17.73;;
21501;SDS011;27639;48.674;9.242;2023-04-15T03:30:54;24.40;;;16.67;;
21501;SDS011;27639;48.674;9.242;2023-04-15T03:33:19;26.27;;;17.77;;
21501;SDS011;27639;48.674;9.242;2023-04-15T03:35:45;21.67;;;15.73;;
21501;SDS011;27639;48.674;9.242;2023-04-15T03:38:11;13.30;;;9.57;;
21501;SDS011;27639;48.674;9.242;2023-04-15T03:40:37;17.02;;;9.82;;
21501;SDS011;27639;48.674;9.242;2023-04-15T03:43:05;14.35;;;9.43;;
21501;SDS011;27639;48.674;9.242;2023-04-15T03:45:30;16.98;;;10.35;;
21501;SDS011;27639;48.674;9.242;2023-04-15T03:47:56;12.80;;;8.57;;
21501;SDS011;27639;48.674;9.242;2023-04-15T03:50:21;11.38;;;7.65;;
21501;SDS011;27639;48.674;9.242;2023-04-15T03:52:47;11.13;;;7.40;;
21501;SDS011;27639;48.674;9.242;2023-04-15T03:55:13;14.30;;;7.88;;
21501;SDS011;27639;48.674;9.242;2023-04-15T03:57:39;15.85;;;9.13;;
21501;SDS011;27639;48.674;9.242;2023-04-15T04:00:05;16.38;;;9.25;;
21501;SDS011;27639;48.674;9.242;2023-04-15T04:02:33;18.35;;;9.48;;
21501;SDS011;27639;48.674;9.242;2023-04-15T04:04:58;15.43;;;9.38;;
21501;SDS011;27639;48.674;9.242;2023-04-15T04:07:24;16.30;;;9.80;;
21501;SDS011;27639;48.674;9.242;2023-04-15T04:09:50;15.82;;;9.48;;
21501;SDS011;27639;48.674;9.242;2023-04-15T04:12:16;16.80;;;10.30;;
21501;SDS011;27639;48.674;9.242;2023-04-15T04:14:41;16.08;;;10.00;;
21501;SDS011;27639;48.674;9.242;2023-04-15T04:17:07;17.13;;;9.82;;
21501;SDS011;27639;48.674;9.242;2023-04-15T04:19:33;16.45;;;10.73;;
21501;SDS011;27639;48.674;9.242;2023-04-15T04:21:58;16.92;;;11.45;;
21501;SDS011;27639;48.674;9.242;2023-04-15T04:24:24;16.45;;;10.85;;
21501;SDS011;27639;48.674;9.242;2023-04-15T04:26:50;14.70;;;10.05;;
21501;SDS011;27639;48.674;9.242;2023-04-15T04:29:15;15.23;;;10.18;;
21501;SDS011;27639;48.674;9.242;2023-04-15T04:31:41;16.02;;;9.95;;
21501;SDS011;27639;48.674;9.242;2023-04-15T04:34:07;12.15;;;7.78;;
21501;SDS011;27639;48.674;9.242;2023-04-15T04:36:32;13.38;;;7.68;;
21501;SDS011;27639;48.674;9.242;2023-04-15T04:38:58;14.05;;;7.50;;
21501;SDS011;27639;48.674;9.242;2023-04-15T04:41:25;13.10;;;7.13;;
21501;SDS011;27639;48.674;9.242;2023-04-15T04:43:50;12.00;;;7.40;;
21501;SDS011;27639;48.674;9.242;2023-04-15T04:46:16;12.18;;;7.07;;
21501;SDS011;27639;48.674;9.242;2023-04-15T04:48:42;11.32;;;7.78;;
21501;SDS011;27639;48.674;9.242;2023-04-15T04:51:07;11.85;;;7.25;;
21501;SDS011;27639;48.674;9.242;2023-04-15T04:53:33;11.15;;;6.65;;
21501;SDS011;27639;48.674;9.242;2023-04-15T04:55:59;8.98;;;5.35;;
21501;SDS011;27639;48.674;9.242;2023-04-15T04:58:25;11.75;;;6.65;;
21501;SDS011;27639;48.674;9.242;2023-04-15T05:00:51;8.15;;;4.68;;
21501;SDS011;27639;48.674;9.242;2023-04-15T05:03:17;10.75;;;6.65;;
21501;SDS011;27639;48.674;9.242;2023-04-15T05:05:42;10.73;;;6.97;;
21501;SDS011;27639;48.674;9.242;2023-04-15T05:08:08;14.93;;;8.10;;
21501;SDS011;27639;48.674;9.242;2023-04-15T05:10:33;11.07;;;6.80;;
21501;SDS011;27639;48.674;9.242;2023-04-15T05:12:59;12.82;;;6.75;;
21501;SDS011;27639;48.674;9.242;2023-04-15T05:15:25;12.50;;;6.40;;
21501;SDS011;27639;48.674;9.242;2023-04-15T05:17:50;12.07;;;6.75;;
21501;SDS011;27639;48.674;9.242;2023-04-15T05:20:16;11.93;;;6.18;;
21501;SDS011;27639;48.674;9.242;2023-04-15T05:22:42;11.07;;;6.60;;
21501;SDS011;27639;48.674;9.242;2023-04-15T05:25:07;11.07;;;6.60;;
21501;SDS011;27639;48.674;9.242;2023-04-15T05:27:33;8.38;;;5.05;;
21501;SDS011;27639;48.674;9.242;2023-04-15T05:29:59;9.05;;;5.00;;
21501;SDS011;27639;48.674;9.242;2023-04-15T05:32:25;9.98;;;5.28;;
21501;SDS011;27639;48.674;9.242;2023-04-15T05:34:51;10.80;;;5.93;;
21501;SDS011;27639;48.674;9.242;2023-04-15T05:37:16;11.88;;;6.47;;
21501;SDS011;27639;48.674;9.242;2023-04-15T05:39:44;12.80;;;7.13;;
21501;SDS011;27639;48.674;9.242;2023-04-15T05:42:10;12.88;;;7.95;;
21501;SDS011;27639;48.674;9.242;2023-04-15T05:44:36;10.60;;;6.85;;
21501;SDS011;27639;48.674;9.242;2023-04-15T05:47:02;8.38;;;5.70;;
21501;SDS011;27639;48.674;9.242;2023-04-15T05:49:27;6.88;;;4.68;;
21501;SDS011;27639;48.674;9.242;2023-04-15T05:51:53;7.00;;;4.03;;
21501;SDS011;27639;48.674;9.242;2023-04-15T05:54:19;6.75;;;3.58;;
21501;SDS011;27639;48.674;9.242;2023-04-15T05:56:47;6.05;;;3.30;;
21501;SDS011;27639;48.674;9.242;2023-04-15T05:59:12;5.03;;;2.95;;
21501;SDS011;27639;48.674;9.242;2023-04-15T06:01:38;8.57;;;4.78;;
21501;SDS011;27639;48.674;9.242;2023-04-15T06:04:04;7.28;;;5.10;;
21501;SDS011;27639;48.674;9.242;2023-04-15T06:06:29;9.48;;;5.40;;
21501;SDS011;27639;48.674;9.242;2023-04-15T06:08:56;8.90;;;4.80;;
21501;SDS011;27639;48.674;9.242;2023-04-15T06:11:22;6.10;;;3.63;;
21501;SDS011;27639;48.674;9.242;2023-04-15T06:13:48;6.93;;;2.95;;
21501;SDS011;27639;48.674;9.242;2023-04-15T06:16:13;5.43;;;2.92;;
21501;SDS011;27639;48.674;9.242;2023-04-15T06:18:39;7.53;;;3.22;;
21501;SDS011;27639;48.674;9.242;2023-04-15T06:21:04;5.15;;;3.00;;
21501;SDS011;27639;48.674;9.242;2023-04-15T06:23:30;6.78;;;3.03;;
21501;SDS011;27639;48.674;9.242;2023-04-15T06:25:59;5.95;;;3.08;;
21501;SDS011;27639;48.674;9.242;2023-04-15T06:28:25;6.20;;;2.80;;
21501;SDS011;27639;48.674;9.242;2023-04-15T06:30:51;6.05;;;3.25;;
21501;SDS011;27639;48.674;9.242;2023-04-15T06:33:17;4.97;;;2.67;;
21501;SDS011;27639;48.674;9.242;2023-04-15T06:35:43;5.00;;;2.75;;
21501;SDS011;27639;48.674;9.242;2023-04-15T06:38:09;8.20;;;4.05;;
21501;SDS011;27639;48.674;9.242;2023-04-15T06:40:34;9.75;;;6.63;;
21501;SDS011;27639;48.674;9.242;2023-04-15T06:43:00;13.90;;;8.05;;
21501;SDS011;27639;48.674;9.242;2023-04-15T06:45:25;14.27;;;9.02;;
21501;SDS011;27639;48.674;9.242;2023-04-15T06:47:51;12.82;;;5.45;;
21501;SDS011;27639;48.674;9.242;2023-04-15T06:50:16;7.00;;;3.85;;
21501;SDS011;27639;48.674;9.242;2023-04-15T06:52:42;5.90;;;3.38;;
21501;SDS011;27639;48.674;9.242;2023-04-15T06:55:08;6.57;;;3.10;;
21501;SDS011;27639;48.674;9.242;2023-04-15T06:57:34;8.38;;;4.45;;
21501;SDS011;27639;48.674;9.242;2023-04-15T06:59:59;8.35;;;4.80;;
21501;SDS011;27639;48.674;9.242;2023-04-15T07:02:25;10.02;;;5.07;;
21501;SDS011;27639;48.674;9.242;2023-04-15T07:04:51;8.77;;;5.00;;
21501;SDS011;27639;48.674;9.242;2023-04-15T07:07:16;6.65;;;3.55;;
21501;SDS011;27639;48.674;9.242;2023-04-15T07:09:42;7.15;;;4.38;;
21501;SDS011;27639;48.674;9.242;2023-04-15T07:12:08;10.52;;;6.70;;
21501;SDS011;27639;48.674;9.242;2023-04-15T07:14:34;9.00;;;5.85;;
21501;SDS011;27639;48.674;9.242;2023-04-15T07:17:00;9.18;;;5.20;;
21501;SDS011;27639;48.674;9.242;2023-04-15T07:19:26;8.15;;;4.43;;
21501;SDS011;27639;48.674;9.242;2023-04-15T07:21:51;6.90;;;4.03;;
21501;SDS011;27639;48.674;9.242;2023-04-15T07:24:17;7.72;;;4.45;;
21501;SDS011;27639;48.674;9.242;2023-04-15T07:26:44;6.32;;;4.80;;
21501;SDS011;27639;48.674;9.242;2023-04-15T07:29:10;8.35;;;5.10;;
21501;SDS011;27639;48.674;9.242;2023-04-15T07:31:36;7.05;;;4.47;;
21501;SDS011;27639;48.674;9.242;2023-04-15T07:34:02;10.13;;;4.15;;
21501;SDS011;27639;48.674;9.242;2023-04-15T07:36:29;7.25;;;4.22;;
21501;SDS011;27639;48.674;9.242;2023-04-15T07:38:54;7.93;;;4.07;;
21501;SDS011;27639;48.674;9.242;2023-04-15T07:41:21;8.65;;;4.13;;
21501;SDS011;27639;48.674;9.242;2023-04-15T07:43:46;8.55;;;4.13;;
21501;SDS011;27639;48.674;9.242;2023-04-15T07:46:12;7.60;;;3.80;;
21501;SDS011;27639;48.674;9.242;2023-04-15T07:48:38;7.70;;;3.80;;
21501;SDS011;27639;48.674;9.242;2023-04-15T07:51:04;5.68;;;3.50;;
21501;SDS011;27639;48.674;9.242;2023-04-15T07:53:30;6.93;;;3.72;;
21501;SDS011;27639;48.674;9.242;2023-04-15T07:55:57;9.05;;;4.10;;
21501;SDS011;27639;48.674;9.242;2023-04-15T07:58:22;7.55;;;3.88;;
21501;SDS011;27639;48.674;9.242;2023-04-15T08:00:48;8.93;;;5.20;;
21501;SDS011;27639;48.674;9.242;2023-04-15T08:03:14;8.30;;;4.40;;
21501;SDS011;27639;48.674;9.242;2023-04-15T08:05:40;6.50;;;3.55;;
21501;SDS011;27639;48.674;9.242;2023-04-15T08:08:06;6.55;;;3.80;;
21501;SDS011;27639;48.674;9.242;2023-04-15T08:10:32;6.75;;;4.15;;
21501;SDS011;27639;48.674;9.242;2023-04-15T08:12:57;7.07;;;3.40;;
21501;SDS011;27639;48.674;9.242;2023-04-15T08:15:23;7.70;;;4.65;;
21501;SDS011;27639;48.674;9.242;2023-04-15T08:17:49;6.25;;;3.75;;
21501;SDS011;27639;48.674;9.242;2023-04-15T08:20:15;6.15;;;3.63;;
21501;SDS011;27639;48.674;9.242;2023-04-15T08:22:40;7.30;;;3.85;;
21501;SDS011;27639;48.674;9.242;2023-04-15T08:25:06;7.13;;;3.53;;
21501;SDS011;27639;48.674;9.242;2023-04-15T08:27:33;6.40;;;3.65;;
21501;SDS011;27639;48.674;9.242;2023-04-15T08:29:58;5.65;;;3.60;;
21501;SDS011;27639;48.674;9.242;2023-04-15T08:32:24;8.43;;;4.05;;
21501;SDS011;27639;48.674;9.242;2023-04-15T08:34:50;8.80;;;3.88;;
21501;SDS011;27639;48.674;9.242;2023-04-15T08:37:17;6.82;;;4.03;;
21501;SDS011;27639;48.674;9.242;2023-04-15T08:39:42;7.68;;;3.60;;
21501;SDS011;27639;48.674;9.242;2023-04-15T08:42:15;6.32;;;3.70;;
21501;SDS011;27639;48.674;9.242;2023-04-15T08:44:41;7.03;;;4.25;;
21501;SDS011;27639;48.674;9.242;2023-04-15T08:47:08;9.23;;;4.28;;
21501;SDS011;27639;48.674;9.242;2023-04-15T08:49:38;7.60;;;3.80;;
21501;SDS011;27639;48.674;9.242;2023-04-15T08:52:04;7.05;;;3.55;;
21501;SDS011;27639;48.674;9.242;2023-04-15T08:54:31;7.68;;;3.72;;
21501;SDS011;27639;48.674;9.242;2023-04-15T08:56:58;7.97;;;3.92;;
21501;SDS011;27639;48.674;9.242;2023-04-15T08:59:24;8.00;;;4.03;;
21501;SDS011;27639;48.674;9.242;2023-04-15T09:01:50;6.05;;;3.97;;
21501;SDS011;27639;48.674;9.242;2023-04-15T09:04:16;9.13;;;4.00;;
21501;SDS011;27639;48.674;9.242;2023-04-15T09:06:42;7.53;;;3.92;;
21501;SDS011;27639;48.674;9.242;2023-04-15T09:09:08;8.00;;;3.97;;
21501;SDS011;27639;48.674;9.242;2023-04-15T09:11:34;5.78;;;3.58;;
21501;SDS011;27639;48.674;9.242;2023-04-15T09:14:00;7.80;;;3.60;;
21501;SDS011;27639;48.674;9.242;2023-04-15T09:16:26;7.88;;;3.90;;
21501;SDS011;27639;48.674;9.242;2023-04-15T09:18:52;8.27;;;4.15;;
21501;SDS011;27639;48.674;9.242;2023-04-15T09:21:18;7.43;;;4.10;;
21501;SDS011;27639;48.674;9.242;2023-04-15T09:23:54;7.53;;;3.95;;
21501;SDS011;27639;48.674;9.242;2023-04-15T09:29:10;6.97;;;3.97;;
21501;SDS011;27639;48.674;9.242;2023-04-15T09:31:39;7.55;;;3.97;;
21501;SDS011;27639;48.674;9.242;2023-04-15T09:34:06;11.75;;;4.18;;
21501;SDS011;27639;48.674;9.242;2023-04-15T09:39:13;7.53;;;4.22;;
21501;SDS011;27639;48.674;9.242;2023-04-15T09:41:39;8.07;;;3.72;;
21501;SDS011;27639;48.674;9.242;2023-04-15T09:44:05;7.57;;;3.55;;
21501;SDS011;27639;48.674;9.242;2023-04-15T09:46:40;6.60;;;3.58;;
21501;SDS011;27639;48.674;9.242;2023-04-15T09:49:10;7.95;;;3.55;;
21501;SDS011;27639;48.674;9.242;2023-04-15T09:51:36;6.05;;;2.97;;
21501;SDS011;27639;48.674;9.242;2023-04-15T09:54:02;5.50;;;3.15;;
21501;SDS011;27639;48.674;9.242;2023-04-15T09:56:35;6.15;;;2.95;;
21501;SDS011;27639;48.674;9.242;2023-04-15T09:59:03;5.70;;;2.95;;
21501;SDS011;27639;48.674;9.242;2023-04-15T10:01:29;4.75;;;2.70;;
21501;SDS011;27639;48.674;9.242;2023-04-15T10:03:56;4.88;;;2.50;;
21501;SDS011;27639;48.674;9.242;2023-04-15T10:06:22;4.97;;;2.70;;
21501;SDS011;27639;48.674;9.242;2023-04-15T10:08:51;5.72;;;3.22;;
21501;SDS011;27639;48.674;9.242;2023-04-15T10:11:19;6.60;;;2.55;;
21501;SDS011;27639;48.674;9.242;2023-04-15T10:13:48;6.43;;;2.58;;
21501;SDS011;27639;48.674;9.242;2023-04-15T10:16:14;6.75;;;2.40;;
21501;SDS011;27639;48.674;9.242;2023-04-15T10:18:43;5.07;;;2.55;;
21501;SDS011;27639;48.674;9.242;2023-04-15T10:21:15;5.70;;;2.90;;
21501;SDS011;27639;48.674;9.242;2023-04-15T10:23:43;6.70;;;3.28;;
21501;SDS011;27639;48.674;9.242;2023-04-15T10:26:10;4.20;;;2.40;;
21501;SDS011;27639;48.674;9.242;2023-04-15T10:28:37;6.22;;;2.45;;
21501;SDS011;27639;48.674;9.242;2023-04-15T10:31:03;5.07;;;2.75;;
21501;SDS011;27639;48.674;9.242;2023-04-15T10:33:29;6.05;;;3.50;;
21501;SDS011;27639;48.674;9.242;2023-04-15T10:35:56;5.88;;;3.15;;
21501;SDS011;27639;48.674;9.242;2023-04-15T10:38:38;4.70;;;2.40;;
21501;SDS011;27639;48.674;9.242;2023-04-15T10:43:38;5.43;;;2.92;;
21501;SDS011;27639;48.674;9.242;2023-04-15T10:46:04;6.38;;;2.75;;
21501;SDS011;27639;48.674;9.242;2023-04-15T10:48:30;4.95;;;3.00;;
21501;SDS011;27639;48.674;9.242;2023-04-15T10:50:57;5.55;;;2.65;;
21501;SDS011;27639;48.674;9.242;2023-04-15T10:53:28;4.72;;;2.50;;
21501;SDS011;27639;48.674;9.242;2023-04-15T10:55:55;4.32;;;2.33;;
21501;SDS011;27639;48.674;9.242;2023-04-15T10:58:22;4.00;;;2.03;;
21501;SDS011;27639;48.674;9.242;2023-04-15T11:00:49;6.75;;;2.38;;
21501;SDS011;27639;48.674;9.242;2023-04-15T11:03:20;5.22;;;1.80;;
21501;SDS011;27639;48.674;9.242;2023-04-15T11:06:03;4.28;;;2.40;;
21501;SDS011;27639;48.674;9.242;2023-04-15T11:11:18;7.22;;;2.15;;
21501;SDS011;27639;48.674;9.242;2023-04-15T11:13:48;5.63;;;2.35;;
21501;SDS011;27639;48.674;9.242;2023-04-15T11:16:15;4.90;;;2.28;;
21501;SDS011;27639;48.674;9.242;2023-04-15T11:18:41;4.30;;;2.80;;
21501;SDS011;27639;48.674;9.242;2023-04-15T11:21:17;6.45;;;2.60;;
21501;SDS011;27639;48.674;9.242;2023-04-15T11:23:42;5.68;;;2.40;;
21501;SDS011;27639;48.674;9.242;2023-04-15T11:26:10;5.50;;;2.78;;
21501;SDS011;27639;48.674;9.242;2023-04-15T11:28:40;5.13;;;2.88;;
21501;SDS011;27639;48.674;9.242;2023-04-15T11:31:09;4.65;;;2.65;;
21501;SDS011;27639;48.674;9.242;2023-04-15T11:33:37;5.43;;;2.80;;
21501;SDS011;27639;48.674;9.242;2023-04-15T11:38:36;5.53;;;2.60;;
21501;SDS011;27639;48.674;9.242;2023-04-15T11:41:06;6.25;;;2.95;;
21501;SDS011;27639;48.674;9.242;2023-04-15T11:43:31;6.60;;;3.53;;
21501;SDS011;27639;48.674;9.242;2023-04-15T11:45:59;6.00;;;2.65;;
21501;SDS011;27639;48.674;9.242;2023-04-15T11:48:27;6.55;;;2.50;;
21501;SDS011;27639;48.674;9.242;2023-04-15T11:53:19;5.95;;;3.40;;
21501;SDS011;27639;48.674;9.242;2023-04-15T11:55:49;6.70;;;3.00;;
21501;SDS011;27639;48.674;9.242;2023-04-15T12:00:56;5.65;;;3.20;;
21501;SDS011;27639;48.674;9.242;2023-04-15T12:06:01;5.35;;;3.08;;
21501;SDS011;27639;48.674;9.242;2023-04-15T12:14:33;7.18;;;2.83;;
21501;SDS011;27639;48.674;9.242;2023-04-15T12:19:10;6.13;;;3.20;;
21501;SDS011;27639;48.674;9.242;2023-04-15T12:21:38;5.97;;;3.50;;
21501;SDS011;27639;48.674;9.242;2023-04-15T12:24:06;7.20;;;3.58;;
21501;SDS011;27639;48.674;9.242;2023-04-15T12:26:43;6.50;;;3.50;;
21501;SDS011;27639;48.674;9.242;2023-04-15T12:29:13;5.03;;;3.10;;
21501;SDS011;27639;48.674;9.242;2023-04-15T12:31:46;6.22;;;3.10;;
21501;SDS011;27639;48.674;9.242;2023-04-15T12:34:14;7.75;;;3.28;;
21501;SDS011;27639;48.674;9.242;2023-04-15T12:36:40;6.53;;;3.00;;
21501;SDS011;27639;48.674;9.242;2023-04-15T12:39:06;5.97;;;3.33;;
21501;SDS011;27639;48.674;9.242;2023-04-15T12:41:32;5.88;;;3.70;;
21501;SDS011;27639;48.674;9.242;2023-04-15T12:43:57;6.05;;;3.85;;
21501;SDS011;27639;48.674;9.242;2023-04-15T12:46:24;5.88;;;3.33;;
21501;SDS011;27639;48.674;9.242;2023-04-15T12:48:50;5.50;;;2.90;;
21501;SDS011;27639;48.674;9.242;2023-04-15T12:51:18;6.40;;;3.65;;
21501;SDS011;27639;48.674;9.242;2023-04-15T12:53:47;6.43;;;4.18;;
21501;SDS011;27639;48.674;9.242;2023-04-15T12:56:13;5.15;;;3.63;;
21501;SDS011;27639;48.674;9.242;2023-04-15T12:58:40;6.25;;;4.45;;
21501;SDS011;27639;48.674;9.242;2023-04-15T13:01:07;5.97;;;3.92;;
21501;SDS011;27639;48.674;9.242;2023-04-15T13:03:32;5.95;;;4.05;;
21501;SDS011;27639;48.674;9.242;2023-04-15T13:05:58;6.97;;;3.60;;
21501;SDS011;27639;48.674;9.242;2023-04-15T13:08:26;5.22;;;3.42;;
21501;SDS011;27639;48.674;9.242;2023-04-15T13:10:51;5.90;;;3.50;;
21501;SDS011;27639;48.674;9.242;2023-04-15T13:13:17;5.00;;;3.63;;
21501;SDS011;27639;48.674;9.242;2023-04-15T13:15:43;4.70;;;3.20;;
21501;SDS011;27639;48.674;9.242;2023-04-15T13:18:09;6.78;;;3.22;;
21501;SDS011;27639;48.674;9.242;2023-04-15T13:20:35;5.50;;;3.05;;
21501;SDS011;27639;48.674;9.242;2023-04-15T13:23:01;4.45;;;3.20;;
21501;SDS011;27639;48.674;9.242;2023-04-15T13:25:26;4.82;;;2.95;;
21501;SDS011;27639;48.674;9.242;2023-04-15T13:27:52;6.15;;;3.03;;
21501;SDS011;27639;48.674;9.242;2023-04-15T13:30:18;5.05;;;3.10;;
21501;SDS011;27639;48.674;9.242;2023-04-15T13:32:43;5.32;;;3.05;;
21501;SDS011;27639;48.674;9.242;2023-04-15T13:35:09;5.53;;;2.90;;
21501;SDS011;27639;48.674;9.242;2023-04-15T13:37:34;4.80;;;3.10;;
21501;SDS011;27639;48.674;9.242;2023-04-15T13:40:00;5.07;;;2.83;;
21501;SDS011;27639;48.674;9.242;2023-04-15T13:42:26;5.25;;;2.88;;
21501;SDS011;27639;48.674;9.242;2023-04-15T13:44:51;4.85;;;2.70;;
21501;SDS011;27639;48.674;9.242;2023-04-15T13:47:20;7.65;;;2.78;;
21501;SDS011;27639;48.674;9.242;2023-04-15T13:49:45;6.82;;;3.00;;
21501;SDS011;27639;48.674;9.242;2023-04-15T13:52:11;4.43;;;2.65;;
21501;SDS011;27639;48.674;9.242;2023-04-15T13:54:37;4.80;;;2.40;;
21501;SDS011;27639;48.674;9.242;2023-04-15T13:57:03;5.22;;;2.67;;
21501;SDS011;27639;48.674;9.242;2023-04-15T13:59:29;4.15;;;2.15;;
21501;SDS011;27639;48.674;9.242;2023-04-15T14:01:55;4.97;;;2.92;;
21501;SDS011;27639;48.674;9.242;2023-04-15T14:04:20;4.60;;;2.22;;
21501;SDS011;27639;48.674;9.242;2023-04-15T14:06:46;4.78;;;2.10;;
21501;SDS011;27639;48.674;9.242;2023-04-15T14:09:12;4.53;;;2.20;;
21501;SDS011;27639;48.674;9.242;2023-04-15T14:11:37;4.53;;;2.17;;
21501;SDS011;27639;48.674;9.242;2023-04-15T14:14:03;3.53;;;1.60;;
21501;SDS011;27639;48.674;9.242;2023-04-15T14:16:31;4.35;;;1.80;;
21501;SDS011;27639;48.674;9.242;2023-04-15T14:18:57;4.95;;;1.63;;
21501;SDS011;27639;48.674;9.242;2023-04-15T14:21:23;4.95;;;2.03;;
21501;SDS011;27639;48.674;9.242;2023-04-15T14:23:48;4.30;;;1.83;;
21501;SDS011;27639;48.674;9.242;2023-04-15T14:26:14;4.85;;;2.15;;
21501;SDS011;27639;48.674;9.242;2023-04-15T14:28:40;3.28;;;1.63;;
21501;SDS011;27639;48.674;9.242;2023-04-15T14:31:06;3.30;;;1.35;;
21501;SDS011;27639;48.674;9.242;2023-04-15T14:33:32;4.07;;;1.20;;
21501;SDS011;27639;48.674;9.242;2023-04-15T14:35:57;3.25;;;1.40;;
21501;SDS011;27639;48.674;9.242;2023-04-15T14:38:23;7.20;;;1.35;;
21501;SDS011;27639;48.674;9.242;2023-04-15T14:40:49;2.20;;;1.02;;
21501;SDS011;27639;48.674;9.242;2023-04-15T14:43:14;4.13;;;1.70;;
21501;SDS011;27639;48.674;9.242;2023-04-15T14:45:41;2.78;;;1.00;;
21501;SDS011;27639;48.674;9.242;2023-04-15T14:48:06;3.88;;;1.45;;
21501;SDS011;27639;48.674;9.242;2023-04-15T14:50:34;3.10;;;1.20;;
21501;SDS011;27639;48.674;9.242;2023-04-15T14:53:00;4.88;;;1.50;;
21501;SDS011;27639;48.674;9.242;2023-04-15T14:55:25;3.00;;;1.30;;
21501;SDS011;27639;48.674;9.242;2023-04-15T14:57:51;4.20;;;1.77;;
21501;SDS011;27639;48.674;9.242;2023-04-15T15:00:17;6.07;;;2.33;;
21501;SDS011;27639;48.674;9.242;2023-04-15T15:02:42;5.03;;;1.95;;
21501;SDS011;27639;48.674;9.242;2023-04-15T15:05:08;4.72;;;3.13;;